Terminal Aerodrome Forecast
Issued by NWS

Home | Current Version | Previous Version | Graphics & Text | Print | Product List | Glossary On
Versions: 1 2 3 4 5 6 7 8 9 10 11 12 13 14
959
FTUS43 KUNR 041730
TAFGCC
TAF
KGCC 041730Z 0418/0518 23013KT P6SM -SHSN BKN040
     FM050700 29015KT P6SM BKN060
     FM051600 27009KT P6SM SCT140=

USA.gov is the U.S. government's official web portal to all federal, state and local government web resources and services.